Time;durP1;ratioP1;P1;durP2;ratioP2;P2;SDS_P1;SDS_P2;PMS_P1;PMS_P2;Temp;Humidity;BMP_temperature;BMP_pressure;BME280_temperature;BME280_humidity;BME280_pressure;Samples;Min_cycle;Max_cycle;Signal;HPM_P1;HPM_P2
2023/10/24 00:01:49;;;;;;;20.60;8.10;;;;;;;11.10;67.46;101307.20;107572;1252;111429;-63
2023/10/24 00:04:17;;;;;;;15.00;7.80;;;;;;;11.08;67.43;101301.64;107616;1253;109039;-63
2023/10/24 00:06:45;;;;;;;22.40;7.30;;;;;;;11.06;67.32;101299.39;107560;1254;107574;-63
2023/10/24 00:09:13;;;;;;;23.90;7.80;;;;;;;11.06;67.51;101300.49;107512;1251;97823;-64
2023/10/24 00:11:41;;;;;;;14.70;7.40;;;;;;;11.04;67.49;101298.54;107538;1253;97856;-63
2023/10/24 00:14:09;;;;;;;19.20;8.00;;;;;;;11.00;67.59;101301.05;107617;1251;111024;-63
2023/10/24 00:16:38;;;;;;;22.70;7.30;;;;;;;10.96;67.70;101304.38;107641;1253;108357;-62
2023/10/24 00:19:06;;;;;;;21.30;8.20;;;;;;;10.90;68.25;101305.34;107559;1252;107171;-62
2023/10/24 00:21:34;;;;;;;21.00;7.60;;;;;;;10.81;68.17;101309.15;107594;1251;97895;-62
2023/10/24 00:24:03;;;;;;;20.80;7.80;;;;;;;10.77;68.38;101308.20;107562;1251;97931;-63
2023/10/24 00:26:31;;;;;;;19.40;7.10;;;;;;;10.76;68.88;101304.39;107594;1251;110871;-62
2023/10/24 00:28:59;;;;;;;23.20;7.30;;;;;;;10.73;68.97;101302.79;107595;1251;109897;-62
2023/10/24 00:31:27;;;;;;;19.00;6.90;;;;;;;10.72;69.13;101296.24;107561;1251;108251;-62
2023/10/24 00:33:57;;;;;;;15.60;7.00;;;;;;;10.70;69.10;101289.11;107511;1251;97849;-63
2023/10/24 00:36:25;;;;;;;22.30;7.40;;;;;;;10.66;69.12;101284.88;107499;1251;97830;-62
2023/10/24 00:38:53;;;;;;;19.80;7.20;;;;;;;10.65;69.13;101288.36;107599;1251;111297;-62
2023/10/24 00:41:22;;;;;;;25.50;7.40;;;;;;;10.65;69.06;101285.16;107528;1251;109101;-62
2023/10/24 00:43:50;;;;;;;18.10;7.50;;;;;;;10.62;69.26;101286.79;107610;1251;108458;-61
2023/10/24 00:46:19;;;;;;;15.00;6.40;;;;;;;10.61;69.23;101289.97;107599;1252;97868;-62
2023/10/24 00:48:48;;;;;;;15.10;7.50;;;;;;;10.60;69.26;101288.23;107559;1252;98393;-62
2023/10/24 00:51:16;;;;;;;15.30;7.00;;;;;;;10.58;69.11;101281.56;107476;1251;110962;-62
2023/10/24 00:53:47;;;;;;;16.30;6.90;;;;;;;10.58;69.08;101275.67;107487;1253;108992;-63
2023/10/24 00:56:16;;;;;;;24.10;8.00;;;;;;;10.55;68.90;101275.86;107533;1252;108540;-63
2023/10/24 00:58:45;;;;;;;21.50;7.60;;;;;;;10.56;68.96;101276.73;107657;1251;97904;-62
2023/10/24 01:01:13;;;;;;;21.10;7.20;;;;;;;10.51;69.08;101282.88;107544;1253;98374;-63
2023/10/24 01:03:46;;;;;;;15.00;6.90;;;;;;;10.43;69.03;101287.47;107633;1250;111744;-62
2023/10/24 01:06:18;;;;;;;14.40;6.80;;;;;;;10.38;69.32;101288.88;107593;1250;109770;-63
2023/10/24 01:08:46;;;;;;;22.00;7.50;;;;;;;10.34;69.11;101287.92;107590;1250;108108;-62
2023/10/24 01:11:15;;;;;;;16.10;6.80;;;;;;;10.32;69.12;101282.48;107501;1251;98663;-62
2023/10/24 01:13:44;;;;;;;20.00;6.70;;;;;;;10.30;69.26;101279.49;107454;1251;97710;-63
2023/10/24 01:16:12;;;;;;;23.60;8.20;;;;;;;10.26;69.49;101280.33;107425;1253;111768;-63
2023/10/24 01:18:41;;;;;;;16.20;6.70;;;;;;;10.23;69.36;101276.11;107637;1251;110381;-63
2023/10/24 01:21:09;;;;;;;19.70;6.00;;;;;;;10.19;69.58;101280.67;107656;1250;108017;-63
2023/10/24 01:23:38;;;;;;;15.90;7.00;;;;;;;10.13;69.49;101280.95;107537;1253;97949;-62
2023/10/24 01:26:07;;;;;;;15.50;6.70;;;;;;;10.08;69.61;101275.98;107584;1255;98442;-62
2023/10/24 01:28:36;;;;;;;18.40;7.30;;;;;;;10.00;69.94;101280.92;107561;1251;111986;-62
2023/10/24 01:31:04;;;;;;;18.00;7.80;;;;;;;9.95;69.88;101281.54;107515;1251;109795;-63
2023/10/24 01:33:33;;;;;;;17.00;6.80;;;;;;;9.89;69.91;101282.30;107536;1253;107985;-61
2023/10/24 01:36:02;;;;;;;18.10;6.40;;;;;;;9.87;70.02;101280.48;107373;1253;98029;-63
2023/10/24 01:38:30;;;;;;;18.10;6.60;;;;;;;9.85;70.03;101281.14;107566;1252;97727;-62
2023/10/24 01:40:59;;;;;;;17.30;6.60;;;;;;;9.83;69.88;101283.63;107469;1252;111820;-62
2023/10/24 01:43:27;;;;;;;16.00;7.70;;;;;;;9.81;70.07;101287.98;107595;1253;110036;-63
2023/10/24 01:45:56;;;;;;;17.30;6.60;;;;;;;9.78;70.23;101289.05;107628;1253;108465;-63
2023/10/24 01:48:25;;;;;;;17.80;7.10;;;;;;;9.72;70.47;101281.44;107645;1251;97806;-61
2023/10/24 01:50:54;;;;;;;17.60;6.40;;;;;;;9.69;70.46;101279.16;107635;1252;98486;-63
2023/10/24 01:53:22;;;;;;;19.10;7.20;;;;;;;9.65;70.39;101282.73;107544;1253;111146;-62
2023/10/24 01:55:51;;;;;;;25.90;6.30;;;;;;;9.62;70.65;101284.73;107604;1253;109931;-63
2023/10/24 01:58:20;;;;;;;18.20;6.80;;;;;;;9.58;70.59;101283.05;107637;1250;106979;-62
2023/10/24 02:00:48;;;;;;;12.80;6.60;;;;;;;9.55;70.70;101286.27;107671;1255;97969;-61
2023/10/24 02:03:17;;;;;;;19.60;6.50;;;;;;;9.51;70.69;101288.73;107566;1251;98502;-61
2023/10/24 02:05:45;;;;;;;18.50;6.80;;;;;;;9.49;71.00;101291.80;107601;1251;111734;-62
2023/10/24 02:08:13;;;;;;;12.90;6.20;;;;;;;9.46;71.13;101300.28;107550;1253;109217;-61
2023/10/24 02:10:42;;;;;;;14.00;6.80;;;;;;;9.45;71.01;101300.70;107589;1251;108319;-61
2023/10/24 02:13:10;;;;;;;25.70;6.70;;;;;;;9.45;71.03;101296.96;107613;1251;97849;-61
2023/10/24 02:15:39;;;;;;;19.20;7.30;;;;;;;9.46;71.07;101297.63;107565;1251;97862;-62
2023/10/24 02:18:07;;;;;;;16.00;6.00;;;;;;;9.45;70.84;101303.91;107598;1255;112254;-62
2023/10/24 02:20:37;;;;;;;20.60;6.30;;;;;;;9.42;70.91;101301.07;107606;1251;109185;-62
2023/10/24 02:23:06;;;;;;;22.90;7.10;;;;;;;9.37;71.01;101303.23;107584;1251;107612;-62
2023/10/24 02:25:37;;;;;;;13.90;7.40;;;;;;;9.31;70.78;101304.27;107605;1251;97732;-62
2023/10/24 02:28:05;;;;;;;17.60;6.30;;;;;;;9.28;70.91;101302.32;107502;1252;97872;-62
2023/10/24 02:30:38;;;;;;;16.30;7.20;;;;;;;9.26;71.11;101298.68;107645;1251;110786;-62
2023/10/24 02:33:07;;;;;;;;;;;;;;;9.25;71.13;101296.63;107591;1251;109882;-62
2023/10/24 02:35:36;;;;;;;23.70;6.80;;;;;;;9.23;71.21;101295.13;107607;1251;108519;-62
2023/10/24 02:38:04;;;;;;;24.30;6.70;;;;;;;9.22;71.05;101297.92;107475;1253;97817;-62
2023/10/24 02:40:32;;;;;;;13.30;6.50;;;;;;;9.22;71.09;101306.67;107622;1253;98351;-62
2023/10/24 02:43:00;;;;;;;16.30;7.20;;;;;;;9.23;70.99;101301.45;107534;1252;111812;-63
2023/10/24 02:45:28;;;;;;;16.70;7.10;;;;;;;9.24;71.11;101299.52;107605;1253;111141;-61
2023/10/24 02:47:57;;;;;;;21.00;6.80;;;;;;;9.24;70.94;101297.08;107583;1255;108302;-61
2023/10/24 02:50:26;;;;;;;15.30;6.60;;;;;;;9.27;70.79;101301.86;107599;1251;97826;-62
2023/10/24 02:52:54;;;;;;;16.30;7.30;;;;;;;9.24;70.66;101297.76;107559;1254;97746;-62
2023/10/24 02:55:23;;;;;;;20.70;6.30;;;;;;;9.20;70.60;101301.43;107627;1251;110505;-62
2023/10/24 02:57:51;;;;;;;14.60;6.20;;;;;;;9.16;70.47;101307.31;107614;1256;108215;-62
2023/10/24 03:00:20;;;;;;;19.10;7.20;;;;;;;9.13;70.43;101310.08;107610;1251;108581;-62
2023/10/24 03:02:48;;;;;;;19.60;6.40;;;;;;;9.08;70.51;101301.29;107487;1253;97837;-63
2023/10/24 03:05:16;;;;;;;13.30;7.40;;;;;;;9.02;70.62;101301.73;107509;1253;98361;-63
2023/10/24 03:07:44;;;;;;;17.50;6.70;;;;;;;8.99;70.48;101300.31;107494;1253;111210;-63
2023/10/24 03:10:12;;;;;;;14.80;6.10;;;;;;;8.96;70.83;101300.93;107608;1251;109264;-61
2023/10/24 03:12:41;;;;;;;17.40;6.70;;;;;;;8.89;70.71;101302.67;107600;1255;107777;-64
2023/10/24 03:15:10;;;;;;;18.70;7.20;;;;;;;8.85;70.70;101309.19;107603;1253;97838;-61
2023/10/24 03:17:38;;;;;;;20.80;7.00;;;;;;;8.83;70.71;101309.55;107664;1250;97712;-62
2023/10/24 03:20:08;;;;;;;15.50;7.30;;;;;;;8.82;70.76;101309.23;107547;1253;111879;-62
2023/10/24 03:22:36;;;;;;;15.90;6.50;;;;;;;8.80;70.76;101315.63;107563;1253;109856;-61
2023/10/24 03:25:06;;;;;;;16.10;6.80;;;;;;;8.79;70.79;101318.42;107555;1253;108417;-62
2023/10/24 03:27:35;;;;;;;18.90;6.90;;;;;;;8.75;70.96;101309.89;107628;1251;97879;-61
2023/10/24 03:30:03;;;;;;;17.10;6.70;;;;;;;8.70;71.02;101304.17;107576;1253;97812;-62
2023/10/24 03:32:32;;;;;;;18.00;6.40;;;;;;;8.68;71.12;101295.08;107660;1251;111862;-61
2023/10/24 03:35:01;;;;;;;13.20;6.50;;;;;;;8.67;71.07;101289.42;107543;1252;109232;-61
2023/10/24 03:37:30;;;;;;;20.20;6.80;;;;;;;8.66;71.18;101290.77;107572;1255;106945;-62
2023/10/24 03:39:58;;;;;;;17.40;6.30;;;;;;;8.62;71.10;101292.43;107539;1255;97924;-62
2023/10/24 03:42:27;;;;;;;19.70;7.30;;;;;;;8.60;71.13;101293.65;107613;1253;97829;-62
2023/10/24 03:44:55;;;;;;;17.50;7.60;;;;;;;8.57;71.20;101294.77;107609;1255;112087;-62
2023/10/24 03:47:23;;;;;;;22.70;7.40;;;;;;;8.54;71.06;101291.77;107575;1253;109550;-62
2023/10/24 03:49:51;;;;;;;25.30;7.70;;;;;;;8.52;71.08;101292.29;107556;1252;109917;-63
2023/10/24 03:52:20;;;;;;;9.50;6.40;;;;;;;8.48;71.16;101301.50;107564;1253;97817;-64
2023/10/24 03:54:48;;;;;;;18.30;7.40;;;;;;;8.45;71.17;101305.08;107609;1254;99075;-62
2023/10/24 03:57:16;;;;;;;19.30;7.10;;;;;;;8.36;71.01;101305.52;107567;1253;111288;-61
2023/10/24 03:59:45;;;;;;;17.80;6.60;;;;;;;8.28;71.11;101302.84;107622;1256;109978;-62
2023/10/24 04:02:13;;;;;;;19.60;7.50;;;;;;;8.25;71.32;101299.30;107550;1253;107423;-64
2023/10/24 04:04:41;;;;;;;20.30;7.30;;;;;;;8.25;71.53;101299.45;107602;1253;97954;-61
2023/10/24 04:07:09;;;;;;;15.50;7.10;;;;;;;8.26;71.41;101297.07;107609;1252;97711;-61
2023/10/24 04:09:38;;;;;;;19.50;7.60;;;;;;;8.27;71.62;101296.32;107590;1253;111896;-63
2023/10/24 04:12:06;;;;;;;18.90;7.30;;;;;;;8.20;71.54;101292.53;107649;1251;107920;-63
2023/10/24 04:14:34;;;;;;;22.30;6.90;;;;;;;8.15;71.69;101297.15;107603;1251;107628;-63
2023/10/24 04:17:04;;;;;;;17.60;7.40;;;;;;;8.13;71.78;101296.90;107476;1252;97862;-62
2023/10/24 04:19:34;;;;;;;24.50;7.40;;;;;;;8.16;71.90;101295.48;107646;1253;97810;-64
2023/10/24 04:22:03;;;;;;;22.30;7.50;;;;;;;8.17;71.62;101300.98;107597;1251;112190;-62
2023/10/24 04:24:31;;;;;;;19.10;7.30;;;;;;;8.17;71.72;101300.39;107620;1251;108084;-62
2023/10/24 04:27:00;;;;;;;21.20;7.20;;;;;;;8.17;72.05;101301.83;107629;1252;107983;-63
2023/10/24 04:29:31;;;;;;;21.40;8.10;;;;;;;8.18;71.81;101300.02;107472;1258;97971;-64
2023/10/24 04:31:59;;;;;;;18.10;7.30;;;;;;;8.18;71.88;101298.38;107604;1253;98159;-63
2023/10/24 04:34:28;;;;;;;20.20;7.90;;;;;;;8.18;71.89;101296.60;107573;1251;111371;-63
2023/10/24 04:36:57;;;;;;;21.10;8.60;;;;;;;8.18;71.90;101297.12;107616;1253;109633;-64
2023/10/24 04:39:26;;;;;;;26.70;7.50;;;;;;;8.18;71.90;101296.41;107575;1253;107954;-64
2023/10/24 04:41:54;;;;;;;22.60;8.20;;;;;;;8.19;71.83;101304.24;107620;1251;97828;-63
2023/10/24 04:44:22;;;;;;;17.90;7.30;;;;;;;8.18;71.73;101308.02;107618;1250;97940;-62
2023/10/24 04:46:51;;;;;;;23.50;8.00;;;;;;;8.16;71.71;101311.00;107540;1256;112570;-61
2023/10/24 04:49:20;;;;;;;40.60;10.30;;;;;;;8.14;71.82;101310.41;107564;1252;109844;-62
2023/10/24 04:51:49;;;;;;;30.30;9.90;;;;;;;8.14;71.77;101317.01;107448;1251;107022;-64
2023/10/24 04:54:18;;;;;;;26.50;8.90;;;;;;;8.15;71.68;101322.47;107510;1251;97942;-61
2023/10/24 04:56:46;;;;;;;29.60;10.20;;;;;;;8.14;71.68;101326.31;107527;1252;99214;-62
2023/10/24 04:59:14;;;;;;;26.20;8.60;;;;;;;8.18;71.72;101336.65;107550;1253;111264;-62
2023/10/24 05:01:42;;;;;;;24.80;9.10;;;;;;;8.21;71.59;101345.54;107459;1255;110080;-63
2023/10/24 05:04:11;;;;;;;22.10;7.30;;;;;;;8.23;71.71;101341.80;107458;1251;107875;-63
2023/10/24 05:06:39;;;;;;;19.30;8.00;;;;;;;8.26;71.74;101345.85;107486;1251;97922;-64
2023/10/24 05:09:07;;;;;;;18.50;7.50;;;;;;;8.28;71.85;101348.97;107492;1252;97997;-63
2023/10/24 05:11:39;;;;;;;17.10;6.50;;;;;;;8.29;71.69;101352.77;107507;1253;111200;-62
2023/10/24 05:14:07;;;;;;;24.20;6.80;;;;;;;8.32;71.67;101359.43;107513;1253;109064;-63
2023/10/24 05:16:35;;;;;;;20.40;7.40;;;;;;;8.32;71.73;101362.62;107518;1253;107646;-62
2023/10/24 05:19:04;;;;;;;18.70;7.80;;;;;;;8.33;71.54;101369.16;107515;1252;97704;-62
2023/10/24 05:21:32;;;;;;;19.40;7.00;;;;;;;8.33;71.67;101370.23;107563;1254;98379;-63
2023/10/24 05:24:01;;;;;;;15.60;7.30;;;;;;;8.35;71.73;101366.52;107529;1250;111260;-63
2023/10/24 05:26:29;;;;;;;23.80;7.80;;;;;;;8.39;71.81;101366.44;107434;1253;108962;-63
2023/10/24 05:28:57;;;;;;;17.20;7.20;;;;;;;8.44;71.68;101373.24;107507;1253;108421;-62
2023/10/24 05:31:26;;;;;;;17.90;8.70;;;;;;;8.49;71.82;101373.46;107398;1254;97813;-62
2023/10/24 05:33:55;;;;;;;15.70;7.10;;;;;;;8.53;71.85;101375.52;107388;1255;97809;-62
2023/10/24 05:36:23;;;;;;;16.60;7.70;;;;;;;8.55;71.84;101380.55;107433;1253;111942;-64
2023/10/24 05:38:51;;;;;;;20.30;7.50;;;;;;;8.59;71.80;101386.70;107441;1252;109152;-63
2023/10/24 05:41:20;;;;;;;19.00;8.00;;;;;;;8.63;71.76;101385.31;107411;1253;108201;-63
2023/10/24 05:43:49;;;;;;;15.40;7.00;;;;;;;8.72;71.84;101379.52;107356;1255;98053;-62
2023/10/24 05:46:17;;;;;;;24.80;7.70;;;;;;;9.00;72.18;101372.17;107429;1251;98814;-63
2023/10/24 05:48:45;;;;;;;17.40;7.60;;;;;;;9.15;71.96;101372.36;107446;1251;111219;-63
2023/10/24 05:51:29;;;;;;;21.20;7.30;;;;;;;9.21;71.78;101371.15;107563;1255;110007;-62
2023/10/24 05:53:57;;;;;;;20.60;7.90;;;;;;;9.37;71.81;101373.63;107580;1251;107704;-63
2023/10/24 05:56:26;;;;;;;20.80;7.90;;;;;;;9.48;71.49;101371.40;107474;1254;97839;-64
2023/10/24 05:58:55;;;;;;;49.20;10.10;;;;;;;9.50;71.15;101371.02;107578;1256;98017;-62
2023/10/24 06:01:24;;;;;;;33.70;10.90;;;;;;;9.52;71.12;101366.98;107492;1253;110944;-62
2023/10/24 06:03:52;;;;;;;49.40;11.60;;;;;;;9.58;71.45;101364.05;107535;1253;108631;-62
2023/10/24 06:06:20;;;;;;;53.10;11.80;;;;;;;9.63;71.48;101361.80;107510;1255;107818;-64
2023/10/24 06:08:48;;;;;;;37.30;12.50;;;;;;;9.69;71.29;101366.56;107541;1253;97819;-63
2023/10/24 06:11:17;;;;;;;51.30;13.40;;;;;;;9.75;71.55;101372.75;107594;1253;97947;-64
2023/10/24 06:13:45;;;;;;;52.10;10.20;;;;;;;9.79;71.59;101372.48;107605;1253;111869;-64
2023/10/24 06:16:18;;;;;;;47.80;12.00;;;;;;;9.83;71.41;101369.33;107517;1253;109777;-63
2023/10/24 06:18:46;;;;;;;43.30;11.60;;;;;;;9.87;71.43;101363.77;107564;1251;106880;-63
2023/10/24 06:21:15;;;;;;;45.50;12.80;;;;;;;9.93;71.39;101365.70;107470;1253;97999;-63
2023/10/24 06:23:43;;;;;;;54.60;12.10;;;;;;;9.98;71.28;101364.58;107458;1253;97815;-63
2023/10/24 06:26:16;;;;;;;38.80;10.80;;;;;;;10.04;71.28;101359.67;107520;1253;111442;-63
2023/10/24 06:28:44;;;;;;;46.70;12.40;;;;;;;10.10;71.09;101349.69;107572;1253;109527;-62
2023/10/24 06:31:13;;;;;;;36.90;9.70;;;;;;;10.17;71.14;101349.14;107525;1252;108554;-63
2023/10/24 06:33:41;;;;;;;41.30;11.00;;;;;;;10.25;71.22;101346.05;107469;1255;97727;-64
2023/10/24 06:36:10;;;;;;;32.70;10.70;;;;;;;10.32;71.15;101340.24;107509;1252;97914;-63
2023/10/24 06:38:38;;;;;;;35.30;10.50;;;;;;;10.41;71.18;101343.55;107477;1255;111050;-62
2023/10/24 06:41:08;;;;;;;27.40;9.60;;;;;;;10.51;71.31;101347.42;107604;1253;108984;-62
2023/10/24 06:43:37;;;;;;;36.40;10.40;;;;;;;10.61;71.19;101346.11;107570;1251;108266;-63
2023/10/24 06:46:05;;;;;;;34.00;10.90;;;;;;;10.69;71.04;101341.52;107542;1253;97819;-62
2023/10/24 06:48:33;;;;;;;45.60;11.10;;;;;;;10.77;70.91;101341.41;107560;1253;97695;-63
2023/10/24 06:51:02;;;;;;;34.60;12.00;;;;;;;10.84;70.78;101339.45;107509;1253;112695;-64
2023/10/24 06:53:30;;;;;;;38.60;13.00;;;;;;;10.92;70.95;101335.92;107517;1253;109455;-63
2023/10/24 06:56:03;;;;;;;26.40;12.10;;;;;;;11.03;71.16;101335.94;107588;1253;108012;-63
2023/10/24 06:58:32;;;;;;;30.30;11.40;;;;;;;11.12;70.95;101342.73;107510;1253;97839;-62
2023/10/24 07:01:00;;;;;;;35.80;12.40;;;;;;;11.22;70.97;101352.89;107536;1255;97755;-62
2023/10/24 07:03:28;;;;;;;37.50;13.70;;;;;;;11.31;70.90;101350.36;107505;1251;111496;-63
2023/10/24 07:05:57;;;;;;;32.60;13.10;;;;;;;11.39;70.93;101353.05;107633;1250;110118;-64
2023/10/24 07:08:25;;;;;;;48.50;14.60;;;;;;;11.50;70.99;101353.86;107518;1251;107552;-63
2023/10/24 07:10:54;;;;;;;35.60;15.20;;;;;;;11.57;70.93;101345.30;107505;1255;97948;-63
2023/10/24 07:13:22;;;;;;;46.50;17.20;;;;;;;11.64;70.80;101342.97;107526;1251;97842;-61
2023/10/24 07:15:50;;;;;;;41.80;17.40;;;;;;;11.73;70.60;101342.92;107560;1253;111910;-61
2023/10/24 07:18:19;;;;;;;52.80;16.00;;;;;;;11.83;70.71;101342.07;107575;1255;109424;-62
2023/10/24 07:20:47;;;;;;;48.90;18.20;;;;;;;11.92;70.33;101342.02;107555;1253;109566;-61
2023/10/24 07:23:15;;;;;;;42.60;17.80;;;;;;;12.02;70.15;101337.12;107475;1253;97942;-63
2023/10/24 07:25:44;;;;;;;49.80;17.60;;;;;;;12.11;70.07;101330.34;107495;1251;98352;-62
2023/10/24 07:28:12;;;;;;;44.30;18.80;;;;;;;12.21;69.70;101330.46;107629;1253;112006;-62
2023/10/24 07:30:41;;;;;;;54.60;18.70;;;;;;;12.31;69.67;101326.32;107544;1254;108910;-63
2023/10/24 07:33:09;;;;;;;47.90;19.70;;;;;;;12.45;69.35;101326.77;107524;1252;108291;-62
2023/10/24 07:35:37;;;;;;;47.30;18.80;;;;;;;12.54;68.94;101329.89;107497;1253;97793;-63
2023/10/24 07:38:06;;;;;;;51.20;17.40;;;;;;;12.65;68.88;101328.05;107544;1252;97724;-61
2023/10/24 07:40:34;;;;;;;44.40;16.70;;;;;;;12.77;68.54;101322.36;107510;1253;112265;-62
2023/10/24 07:43:03;;;;;;;54.20;17.20;;;;;;;12.87;68.48;101323.05;107538;1254;110530;-62
2023/10/24 07:45:31;;;;;;;39.40;14.90;;;;;;;12.99;68.15;101320.58;107490;1254;108673;-63
2023/10/24 07:48:00;;;;;;;35.30;14.30;;;;;;;13.11;68.07;101317.98;107537;1253;97854;-62
2023/10/24 07:50:31;;;;;;;40.80;13.40;;;;;;;13.25;68.01;101322.70;107526;1256;97864;-62
2023/10/24 07:52:59;;;;;;;34.10;14.00;;;;;;;13.42;68.05;101324.64;107555;1254;112011;-63
2023/10/24 07:55:28;;;;;;;37.20;12.80;;;;;;;13.59;67.87;101321.47;107565;1254;108935;-62
2023/10/24 07:57:56;;;;;;;34.80;13.00;;;;;;;13.77;67.50;101320.63;107536;1256;107553;-64
2023/10/24 08:00:24;;;;;;;37.60;12.30;;;;;;;13.95;66.98;101316.25;107543;1253;97960;-63
2023/10/24 08:02:53;;;;;;;30.50;12.00;;;;;;;14.15;66.68;101316.77;107584;1251;97708;-62
2023/10/24 08:05:26;;;;;;;46.20;14.70;;;;;;;14.36;66.04;101313.86;107600;1255;110891;-63
2023/10/24 08:07:54;;;;;;;33.50;11.80;;;;;;;14.55;65.61;101305.50;107559;1251;108995;-62
2023/10/24 08:10:23;;;;;;;30.70;14.40;;;;;;;14.77;65.46;101300.89;107575;1255;108452;-63
2023/10/24 08:12:51;;;;;;;46.50;14.10;;;;;;;15.03;65.14;101298.85;107549;1255;97824;-64
2023/10/24 08:15:19;;;;;;;34.70;12.80;;;;;;;15.33;64.70;101290.52;107533;1256;97739;-63
2023/10/24 08:17:47;;;;;;;28.40;11.60;;;;;;;15.66;64.32;101286.98;107524;1254;112004;-63
2023/10/24 08:20:16;;;;;;;37.50;14.60;;;;;;;16.03;63.27;101285.41;107597;1254;108804;-63
2023/10/24 08:22:44;;;;;;;36.50;14.70;;;;;;;16.37;61.71;101280.48;107560;1255;108475;-63
2023/10/24 08:25:13;;;;;;;27.20;12.80;;;;;;;16.73;61.18;101272.13;107571;1255;97828;-62
2023/10/24 08:27:43;;;;;;;33.80;11.00;;;;;;;17.13;60.28;101272.61;107558;1253;97843;-62
2023/10/24 08:30:12;;;;;;;24.10;10.70;;;;;;;17.51;59.74;101264.80;107586;1251;112299;-63
2023/10/24 08:32:41;;;;;;;49.20;13.10;;;;;;;17.80;58.71;101262.73;107645;1254;109146;-63
2023/10/24 08:35:09;;;;;;;39.20;11.40;;;;;;;18.05;57.49;101254.48;107493;1256;107662;-63
2023/10/24 08:37:37;;;;;;;38.60;11.70;;;;;;;18.41;56.59;101246.58;107585;1251;97831;-62
2023/10/24 08:40:08;;;;;;;33.00;10.90;;;;;;;18.80;55.47;101243.84;107581;1256;97715;-64
2023/10/24 08:42:37;;;;;;;37.80;10.90;;;;;;;19.01;55.09;101254.69;107583;1254;112487;-64
2023/10/24 08:45:07;;;;;;;29.60;10.60;;;;;;;19.15;54.17;101247.06;107602;1256;108188;-63
2023/10/24 08:47:36;;;;;;;26.70;10.90;;;;;;;19.17;53.52;101239.68;107590;1251;108594;-63
2023/10/24 08:50:06;;;;;;;24.70;10.80;;;;;;;19.21;53.46;101244.45;107590;1253;97858;-63
2023/10/24 08:52:35;;;;;;;31.50;10.70;;;;;;;19.18;52.11;101247.61;107628;1253;97710;-63
2023/10/24 08:55:05;;;;;;;25.60;11.70;;;;;;;19.09;52.50;101245.52;107629;1251;110932;-62
2023/10/24 08:57:41;;;;;;;27.40;10.60;;;;;;;19.11;53.00;101241.48;107635;1251;109799;-62
2023/10/24 09:00:12;;;;;;;29.30;10.50;;;;;;;19.12;52.83;101240.30;107668;1251;106678;-63
2023/10/24 09:02:44;;;;;;;34.00;11.40;;;;;;;19.10;52.99;101238.73;107504;1254;97924;-62
2023/10/24 09:05:14;;;;;;;24.10;9.70;;;;;;;19.09;53.06;101239.39;107621;1256;97849;-64
2023/10/24 09:07:43;;;;;;;24.10;10.00;;;;;;;19.10;53.31;101235.46;107674;1251;111491;-63
2023/10/24 09:10:11;;;;;;;29.10;9.40;;;;;;;19.12;53.18;101237.27;107600;1250;109895;-65
2023/10/24 09:12:39;;;;;;;28.60;10.30;;;;;;;19.14;52.73;101229.34;107549;1251;108484;-63
2023/10/24 09:15:12;;;;;;;31.30;10.30;;;;;;;19.18;52.30;101216.89;107490;1255;97796;-62
2023/10/24 09:17:41;;;;;;;17.50;9.00;;;;;;;19.25;52.16;101203.81;107512;1254;97710;-63
2023/10/24 09:20:10;;;;;;;24.80;9.20;;;;;;;19.35;51.40;101204.29;107607;1251;111746;-62
2023/10/24 09:22:42;;;;;;;23.90;8.30;;;;;;;19.39;50.72;101193.67;107540;1253;108783;-64
2023/10/24 09:25:10;;;;;;;36.40;10.20;;;;;;;19.36;50.87;101188.69;107495;1256;108401;-64
2023/10/24 09:27:38;;;;;;;21.80;8.60;;;;;;;19.32;51.07;101190.96;107578;1254;97743;-63
2023/10/24 09:30:11;;;;;;;16.80;8.50;;;;;;;19.33;51.02;101195.42;107574;1257;97736;-62
2023/10/24 09:32:41;;;;;;;33.50;8.10;;;;;;;19.34;51.21;101188.23;107578;1256;110180;-64
2023/10/24 09:35:09;;;;;;;17.70;7.70;;;;;;;19.33;50.75;101197.58;107634;1251;108695;-63
2023/10/24 09:37:48;;;;;;;27.80;8.50;;;;;;;19.36;50.89;101200.59;107683;1251;108201;-64
2023/10/24 09:40:17;;;;;;;24.60;7.50;;;;;;;19.39;50.98;101194.18;107537;1253;97834;-63
2023/10/24 09:42:50;;;;;;;25.50;14.30;;;;;;;19.47;50.76;101188.94;107537;1253;97928;-62
2023/10/24 09:45:19;;;;;;;19.30;9.00;;;;;;;19.52;50.64;101179.69;107674;1253;110305;-62
2023/10/24 09:47:51;;;;;;;25.00;8.50;;;;;;;19.59;50.89;101184.59;107566;1254;108405;-64
2023/10/24 09:50:20;;;;;;;18.30;6.90;;;;;;;19.69;50.70;101190.01;107598;1256;107544;-62
2023/10/24 09:52:49;;;;;;;18.30;6.60;;;;;;;19.82;50.44;101190.52;107638;1251;97916;-62
2023/10/24 09:55:19;;;;;;;22.60;7.80;;;;;;;19.92;50.17;101173.52;107595;1251;97717;-62
2023/10/24 09:57:48;;;;;;;29.70;7.20;;;;;;;19.96;49.59;101156.39;107519;1254;110952;-63
2023/10/24 10:00:18;;;;;;;18.20;6.70;;;;;;;20.08;49.52;101150.30;107635;1251;109857;-62
2023/10/24 10:02:47;;;;;;;18.00;7.40;;;;;;;20.50;49.19;101135.97;107656;1251;106650;-64
2023/10/24 10:05:16;;;;;;;21.40;6.10;;;;;;;21.38;48.75;101134.15;107588;1251;97925;-63
2023/10/24 10:07:49;;;;;;;25.20;5.60;;;;;;;22.08;47.64;101132.11;107599;1255;97825;-62
2023/10/24 10:10:19;;;;;;;19.00;4.20;;;;;;;22.59;45.27;101128.84;107639;1251;110152;-64
2023/10/24 10:12:51;;;;;;;12.50;3.50;;;;;;;23.72;42.41;101120.70;107368;1256;331858;-62
2023/10/24 10:15:39;;;;;;;11.10;3.60;;;;;;;24.74;40.06;101111.54;107614;1253;107588;-63
2023/10/24 10:18:40;;;;;;;9.10;3.20;;;;;;;25.19;38.72;101105.06;107595;1255;97827;-63
2023/10/24 10:21:24;;;;;;;10.20;3.60;;;;;;;25.19;37.92;101098.01;107639;1255;98422;-63
2023/10/24 10:24:37;;;;;;;5.60;3.00;;;;;;;24.94;36.69;101101.68;107620;1254;111322;-64
2023/10/24 10:27:26;;;;;;;14.90;3.20;;;;;;;24.64;37.08;101097.77;107404;1251;108760;-63
2023/10/24 10:30:14;;;;;;;9.90;3.60;;;;;;;24.46;37.91;101104.74;107519;1253;108358;-64
2023/10/24 10:33:12;;;;;;;11.50;3.30;;;;;;;24.58;37.91;101111.48;107631;1254;97841;-63
2023/10/24 10:36:12;;;;;;;6.50;3.20;;;;;;;24.37;37.55;101111.69;107605;1254;97840;-63
2023/10/24 10:38:43;;;;;;;9.50;3.20;;;;;;;24.43;36.75;101099.13;107608;1251;112115;-64
2023/10/24 10:41:32;;;;;;;9.40;3.20;;;;;;;24.99;36.16;101089.65;107594;1251;108961;-62
2023/10/24 10:44:02;;;;;;;9.40;3.20;;;;;;;25.96;35.52;101086.52;107593;1254;108120;-62
2023/10/24 10:46:32;;;;;;;7.10;3.40;;;;;;;25.96;35.18;101092.20;107604;1253;97832;-65
2023/10/24 10:49:06;;;;;;;18.90;3.60;;;;;;;25.59;34.35;101093.18;107607;1257;98368;-63
2023/10/24 10:51:38;;;;;;;8.80;3.00;;;;;;;25.17;34.44;101095.08;107630;1255;112348;-63
2023/10/24 10:54:20;;;;;;;14.40;4.00;;;;;;;24.71;34.46;101099.00;107638;1251;109830;-63
2023/10/24 10:56:49;;;;;;;8.50;3.50;;;;;;;24.21;35.26;101093.34;107497;1254;107278;-63
2023/10/24 10:59:31;;;;;;;13.20;3.60;;;;;;;23.83;35.72;101086.11;107618;1251;97819;-63
2023/10/24 11:02:00;;;;;;;11.10;3.40;;;;;;;23.50;35.58;101085.78;107630;1257;97851;-63
2023/10/24 11:04:28;;;;;;;13.50;3.90;;;;;;;23.13;36.30;101083.40;107610;1254;111338;-63
2023/10/24 11:06:59;;;;;;;17.60;4.10;;;;;;;22.79;36.33;101087.61;107657;1254;109420;-62
2023/10/24 11:09:32;;;;;;;12.90;4.10;;;;;;;22.46;37.37;101092.29;107599;1251;107716;-62
2023/10/24 11:12:21;;;;;;;8.40;3.60;;;;;;;22.22;37.76;101091.23;107591;1256;98086;-63
2023/10/24 11:15:18;;;;;;;14.10;3.30;;;;;;;21.92;37.94;101091.88;107617;1251;97833;-62
2023/10/24 11:17:47;;;;;;;9.40;3.20;;;;;;;21.70;38.16;101085.29;107619;1250;111729;-63
2023/10/24 11:20:17;;;;;;;13.60;3.60;;;;;;;21.52;38.55;101080.27;107587;1254;109725;-64